Time;durP1;ratioP1;P1;durP2;ratioP2;P2;SDS_P1;SDS_P2;PMS_P1;PMS_P2;Temp;Humidity;BMP_temperature;BMP_pressure;BME280_temperature;BME280_humidity;BME280_pressure;Samples;Min_cycle;Max_cycle;Signal;HPM_P1;HPM_P2
2023/06/02 00:00:18;;;;;;;;;;;;;;;;;;5002186;28;19913;-73
2023/06/02 00:02:46;;;;;;;;;;;;;;;;;;5004013;28;19920;-73
2023/06/02 00:05:12;;;;;;;;;;;;;;;;;;5000597;28;19920;-72
2023/06/02 00:07:38;;;;;;;;;;;;;;;;;;5005067;28;20545;-71
2023/06/02 00:10:04;;;;;;;;;;;;;;;;;;5002215;28;19916;-71
2023/06/02 00:12:30;;;;;;;;;;;;;;;;;;5000667;28;19935;-70
2023/06/02 00:14:56;;;;;;;;;;;;;;;;;;5000924;28;20992;-74
2023/06/02 00:17:22;;;;;;;;;;;;;;;;;;5000794;28;19917;-71
2023/06/02 00:19:48;;;;;;;;;;;;;;;;;;5002466;28;20407;-70
2023/06/02 00:22:15;;;;;;;;;;;;;;;;;;5004819;28;20371;-73
2023/06/02 00:24:41;;;;;;;;;;;;;;;;;;5009451;28;20167;-72
2023/06/02 00:27:07;;;;;;;;;;;;;;;;;;5008907;28;20155;-70
2023/06/02 00:29:33;;;;;;;;;;;;;;;;;;5011104;28;20069;-73
2023/06/02 00:31:59;;;;;;;;;;;;;;;;;;5008042;28;19920;-72
2023/06/02 00:34:26;;;;;;;;;;;;;;;;;;5009625;28;19924;-72
2023/06/02 00:36:52;;;;;;;;;;;;;;;;;;5014815;28;20346;-72
2023/06/02 00:39:18;;;;;;;;;;;;;;;;;;5010677;28;19913;-72
2023/06/02 00:41:45;;;;;;;;;;;;;;;;;;5012051;28;19912;-71
2023/06/02 00:44:10;;;;;;;;;;;;;;;;;;5003938;28;19913;-71
2023/06/02 00:46:36;;;;;;;;;;;;;;;;;;5008942;28;19978;-71
2023/06/02 00:49:02;;;;;;;;;;;;;;;;;;5010905;28;19995;-72
2023/06/02 00:51:28;;;;;;;;;;;;;;;;;;5008133;28;20573;-70
2023/06/02 00:53:54;;;;;;;;;;;;;;;;;;5010126;28;20351;-70
2023/06/02 00:56:23;;;;;;;;;;;;;;;;;;5007470;28;19917;-72
2023/06/02 00:58:48;;;;;;;;;;;;;;;;;;5010033;28;20450;-71
2023/06/02 01:01:18;;;;;;;;;;;;;;;;;;5007208;28;19921;-71
2023/06/02 01:03:44;;;;;;;;;;;;;;;;;;5011710;28;20487;-70
2023/06/02 01:06:10;;;;;;;;;;;;;;;;;;5006774;28;19913;-71
2023/06/02 01:08:39;;;;;;;;;;;;;;;;;;5006195;28;20136;-71
2023/06/02 01:11:05;;;;;;;;;;;;;;;;;;5011010;28;19983;-70
2023/06/02 01:13:31;;;;;;;;;;;;;;;;;;5007229;28;20470;-70
2023/06/02 01:15:57;;;;;;;;;;;;;;;;;;5010681;28;19913;-71
2023/06/02 01:18:25;;;;;;;;;;;;;;;;;;5004821;28;20530;-71
2023/06/02 01:20:52;;;;;;;;;;;;;;;;;;5005543;28;20436;-71
2023/06/02 01:23:17;;;;;;;;;;;;;;;;;;5003731;28;19920;-71
2023/06/02 01:25:44;;;;;;;;;;;;;;;;;;5014170;28;20006;-71
2023/06/02 01:28:10;;;;;;;;;;;;;;;;;;5010531;28;20424;-71
2023/06/02 01:30:37;;;;;;;;;;;;;;;;;;5006687;28;20346;-71
2023/06/02 01:33:03;;;;;;;;;;;;;;;;;;5009891;28;19925;-72
2023/06/02 01:35:29;;;;;;;;;;;;;;;;;;5005325;28;19917;-72
2023/06/02 01:37:56;;;;;;;;;;;;;;;;;;5006062;28;21243;-70
2023/06/02 01:40:22;;;;;;;;;;;;;;;;;;5002182;28;19913;-70
2023/06/02 01:42:48;;;;;;;;;;;;;;;;;;5005744;28;20178;-70
2023/06/02 01:45:14;;;;;;;;;;;;;;;;;;5003781;28;20455;-70
2023/06/02 01:47:40;;;;;;;;;;;;;;;;;;5005959;28;20023;-73
2023/06/02 01:50:06;;;;;;;;;;;;;;;;;;5009594;28;19921;-71
2023/06/02 01:52:32;;;;;;;;;;;;;;;;;;5004851;28;20369;-71
2023/06/02 01:54:58;;;;;;;;;;;;;;;;;;5007378;28;19917;-71
2023/06/02 01:57:26;;;;;;;;;;;;;;;;;;5003862;28;19964;-70
2023/06/02 01:59:52;;;;;;;;;;;;;;;;;;5005345;28;19959;-71
2023/06/02 02:02:18;;;;;;;;;;;;;;;;;;5003081;28;20004;-72
2023/06/02 02:04:44;;;;;;;;;;;;;;;;;;5006382;28;19923;-73
2023/06/02 02:07:11;;;;;;;;;;;;;;;;;;5002440;28;20428;-71
2023/06/02 02:09:37;;;;;;;;;;;;;;;;;;5009454;28;20242;-70
2023/06/02 02:12:03;;;;;;;;;;;;;;;;;;5009873;28;20399;-70
2023/06/02 02:14:30;;;;;;;;;;;;;;;;;;5003231;28;19917;-71
2023/06/02 02:17:00;;;;;;;;;;;;;;;;;;5006973;28;20478;-71
2023/06/02 02:19:31;;;;;;;;;;;;;;;;;;5005371;28;19917;-71
2023/06/02 02:21:57;;;;;;;;;;;;;;;;;;5005239;28;20327;-71
2023/06/02 02:24:23;;;;;;;;;;;;;;;;;;5007072;28;20872;-72
2023/06/02 02:26:49;;;;;;;;;;;;;;;;;;5008639;28;19913;-71
2023/06/02 02:29:15;;;;;;;;;;;;;;;;;;5005921;28;19917;-71
2023/06/02 02:31:41;;;;;;;;;;;;;;;;;;5006990;28;19913;-71
2023/06/02 02:34:07;;;;;;;;;;;;;;;;;;5007164;28;19963;-71
2023/06/02 02:36:33;;;;;;;;;;;;;;;;;;5009328;28;19917;-71
2023/06/02 02:38:59;;;;;;;;;;;;;;;;;;5009399;28;19920;-70
2023/06/02 02:41:26;;;;;;;;;;;;;;;;;;5008571;28;19967;-70
2023/06/02 02:43:52;;;;;;;;;;;;;;;;;;5010863;28;20004;-71
2023/06/02 02:46:17;;;;;;;;;;;;;;;;;;5007277;28;19913;-70
2023/06/02 02:48:43;;;;;;;;;;;;;;;;;;5014910;28;19951;-71
2023/06/02 02:51:09;;;;;;;;;;;;;;;;;;5009492;28;19995;-71
2023/06/02 02:53:35;;;;;;;;;;;;;;;;;;5009969;28;20020;-72
2023/06/02 02:56:02;;;;;;;;;;;;;;;;;;5010537;28;20347;-71
2023/06/02 02:58:31;;;;;;;;;;;;;;;;;;5007105;28;20876;-71
2023/06/02 03:00:57;;;;;;;;;;;;;;;;;;5007876;28;19919;-71
2023/06/02 03:03:23;;;;;;;;;;;;;;;;;;5005721;28;19913;-71
2023/06/02 03:05:49;;;;;;;;;;;;;;;;;;5010671;28;20304;-70
2023/06/02 03:08:17;;;;;;;;;;;;;;;;;;5006280;28;19927;-71
2023/06/02 03:10:43;;;;;;;;;;;;;;;;;;5009284;28;19913;-71
2023/06/02 03:13:09;;;;;;;;;;;;;;;;;;5007859;28;20256;-72
2023/06/02 03:15:36;;;;;;;;;;;;;;;;;;5008769;28;20340;-71
2023/06/02 03:18:03;;;;;;;;;;;;;;;;;;5010629;28;19916;-72
2023/06/02 03:20:29;;;;;;;;;;;;;;;;;;5005880;28;19921;-70
2023/06/02 03:22:55;;;;;;;;;;;;;;;;;;5009535;28;19920;-70
2023/06/02 03:25:22;;;;;;;;;;;;;;;;;;5005285;28;20424;-70
2023/06/02 03:27:48;;;;;;;;;;;;;;;;;;5007506;28;19943;-71
2023/06/02 03:30:14;;;;;;;;;;;;;;;;;;5005403;28;19916;-70
2023/06/02 03:32:40;;;;;;;;;;;;;;;;;;5012631;28;19912;-70
2023/06/02 03:35:06;;;;;;;;;;;;;;;;;;5010169;28;20393;-69
2023/06/02 03:37:32;;;;;;;;;;;;;;;;;;5008409;28;20285;-71
2023/06/02 03:39:58;;;;;;;;;;;;;;;;;;5012242;28;20325;-71
2023/06/02 03:42:24;;;;;;;;;;;;;;;;;;5007560;28;19923;-71
2023/06/02 03:44:50;;;;;;;;;;;;;;;;;;5011789;28;19916;-71
2023/06/02 03:47:16;;;;;;;;;;;;;;;;;;5006900;28;19916;-71
2023/06/02 03:49:41;;;;;;;;;;;;;;;;;;5010444;28;20222;-70
2023/06/02 03:52:07;;;;;;;;;;;;;;;;;;5008032;28;20007;-70
2023/06/02 03:54:33;;;;;;;;;;;;;;;;;;5008593;28;20270;-70
2023/06/02 03:56:59;;;;;;;;;;;;;;;;;;5009693;28;19913;-70
2023/06/02 03:59:25;;;;;;;;;;;;;;;;;;5005890;28;19913;-70
2023/06/02 04:01:51;;;;;;;;;;;;;;;;;;5011715;28;20339;-69
2023/06/02 04:04:17;;;;;;;;;;;;;;;;;;5009974;28;19916;-70
2023/06/02 04:06:43;;;;;;;;;;;;;;;;;;5011707;28;20371;-70
2023/06/02 04:09:10;;;;;;;;;;;;;;;;;;5010145;28;19909;-71
2023/06/02 04:11:36;;;;;;;;;;;;;;;;;;5010443;28;20129;-71
2023/06/02 04:14:02;;;;;;;;;;;;;;;;;;5011838;28;19925;-70
2023/06/02 04:16:28;;;;;;;;;;;;;;;;;;5007391;28;21165;-71
2023/06/02 04:18:54;;;;;;;;;;;;;;;;;;5010562;28;19928;-70
2023/06/02 04:21:20;;;;;;;;;;;;;;;;;;5003737;28;20431;-70
2023/06/02 04:23:46;;;;;;;;;;;;;;;;;;5007431;28;20422;-70
2023/06/02 04:26:12;;;;;;;;;;;;;;;;;;5005199;28;19928;-71
2023/06/02 04:28:38;;;;;;;;;;;;;;;;;;5010199;28;20142;-70
2023/06/02 04:31:07;;;;;;;;;;;;;;;;;;5009442;28;20160;-70
2023/06/02 04:33:34;;;;;;;;;;;;;;;;;;5011331;28;20002;-72
2023/06/02 04:36:00;;;;;;;;;;;;;;;;;;5009037;28;19913;-71
2023/06/02 04:38:26;;;;;;;;;;;;;;;;;;5003791;28;20409;-72
2023/06/02 04:40:52;;;;;;;;;;;;;;;;;;5010415;28;20265;-71
2023/06/02 04:43:18;;;;;;;;;;;;;;;;;;5009817;28;19917;-71
2023/06/02 04:45:45;;;;;;;;;;;;;;;;;;5007436;28;19995;-72
2023/06/02 04:48:11;;;;;;;;;;;;;;;;;;5008747;28;19921;-72
2023/06/02 04:50:37;;;;;;;;;;;;;;;;;;5008142;28;19913;-72
2023/06/02 04:53:03;;;;;;;;;;;;;;;;;;5008433;28;19928;-72
2023/06/02 04:55:29;;;;;;;;;;;;;;;;;;5005810;28;20471;-72
2023/06/02 04:57:56;;;;;;;;;;;;;;;;;;5012426;28;19909;-70
2023/06/02 05:00:22;;;;;;;;;;;;;;;;;;5008659;28;19951;-72
2023/06/02 05:02:48;;;;;;;;;;;;;;;;;;5010609;28;20035;-72
2023/06/02 05:05:14;;;;;;;;;;;;;;;;;;5008059;28;19920;-73
2023/06/02 05:07:40;;;;;;;;;;;;;;;;;;5010814;28;20444;-73
2023/06/02 05:10:06;;;;;;;;;;;;;;;;;;5006747;28;20111;-73
2023/06/02 05:12:32;;;;;;;;;;;;;;;;;;5007677;28;20080;-73
2023/06/02 05:14:58;;;;;;;;;;;;;;;;;;5006913;28;19964;-73
2023/06/02 05:17:24;;;;;;;;;;;;;;;;;;5008987;28;20485;-71
2023/06/02 05:19:50;;;;;;;;;;;;;;;;;;5006858;28;19917;-71
2023/06/02 05:22:16;;;;;;;;;;;;;;;;;;5006856;28;19937;-71
2023/06/02 05:24:42;;;;;;;;;;;;;;;;;;5007894;28;19920;-71
2023/06/02 05:27:08;;;;;;;;;;;;;;;;;;5003554;28;19909;-71
2023/06/02 05:29:34;;;;;;;;;;;;;;;;;;5007545;28;20015;-71
2023/06/02 05:32:00;;;;;;;;;;;;;;;;;;5009063;28;19920;-71
2023/06/02 05:34:26;;;;;;;;;;;;;;;;;;5003162;28;20017;-71
2023/06/02 05:36:52;;;;;;;;;;;;;;;;;;5007544;28;19913;-71
2023/06/02 05:39:18;;;;;;;;;;;;;;;;;;5006578;28;19913;-70
2023/06/02 05:41:44;;;;;;;;;;;;;;;;;;5006164;28;20058;-71
2023/06/02 05:44:10;;;;;;;;;;;;;;;;;;5007318;28;20699;-71
2023/06/02 05:46:36;;;;;;;;;;;;;;;;;;5008184;28;20113;-73
2023/06/02 05:49:02;;;;;;;;;;;;;;;;;;5008330;28;20229;-71
2023/06/02 05:51:28;;;;;;;;;;;;;;;;;;5004662;28;19960;-70
2023/06/02 05:53:54;;;;;;;;;;;;;;;;;;5006172;28;20490;-71
2023/06/02 05:56:21;;;;;;;;;;;;;;;;;;5004471;28;19913;-71
2023/06/02 05:58:47;;;;;;;;;;;;;;;;;;5007956;28;19916;-72
2023/06/02 06:01:13;;;;;;;;;;;;;;;;;;5002167;28;19912;-73
2023/06/02 06:03:39;;;;;;;;;;;;;;;;;;5008430;28;19917;-69
2023/06/02 06:06:05;;;;;;;;;;;;;;;;;;5008424;28;19913;-71
2023/06/02 06:08:31;;;;;;;;;;;;;;;;;;5002251;28;19919;-71
2023/06/02 06:10:57;;;;;;;;;;;;;;;;;;5012142;28;19913;-72
2023/06/02 06:13:23;;;;;;;;;;;;;;;;;;5013789;28;20187;-72
2023/06/02 06:15:49;;;;;;;;;;;;;;;;;;5011452;28;20159;-71
2023/06/02 06:18:15;;;;;;;;;;;;;;;;;;5006696;28;20359;-72
2023/06/02 06:20:41;;;;;;;;;;;;;;;;;;5009278;28;19919;-71
2023/06/02 06:23:07;;;;;;;;;;;;;;;;;;5008129;28;19917;-71
2023/06/02 06:25:33;;;;;;;;;;;;;;;;;;5010081;28;19920;-72
2023/06/02 06:27:59;;;;;;;;;;;;;;;;;;5008867;28;19913;-72
2023/06/02 06:30:25;;;;;;;;;;;;;;;;;;5006688;28;19920;-72
2023/06/02 06:32:51;;;;;;;;;;;;;;;;;;5010679;28;20331;-72
2023/06/02 06:35:17;;;;;;;;;;;;;;;;;;5007537;28;19916;-72
2023/06/02 06:37:43;;;;;;;;;;;;;;;;;;5008621;28;19963;-72
2023/06/02 06:40:09;;;;;;;;;;;;;;;;;;5013344;28;20187;-71
2023/06/02 06:42:35;;;;;;;;;;;;;;;;;;5010630;28;20378;-72
2023/06/02 06:45:01;;;;;;;;;;;;;;;;;;5009277;28;20409;-72
2023/06/02 06:47:27;;;;;;;;;;;;;;;;;;5007977;28;19913;-72
2023/06/02 06:49:54;;;;;;;;;;;;;;;;;;5009997;28;19917;-72
2023/06/02 06:52:20;;;;;;;;;;;;;;;;;;5010535;28;20055;-72
2023/06/02 06:54:46;;;;;;;;;;;;;;;;;;5008287;28;19925;-72
2023/06/02 06:57:12;;;;;;;;;;;;;;;;;;5007637;28;19912;-72
2023/06/02 06:59:38;;;;;;;;;;;;;;;;;;5010464;28;19917;-72
2023/06/02 07:02:04;;;;;;;;;;;;;;;;;;5012559;28;20865;-72
2023/06/02 07:04:30;;;;;;;;;;;;;;;;;;5004839;28;20482;-72
2023/06/02 07:06:56;;;;;;;;;;;;;;;;;;5009921;28;20303;-72
2023/06/02 07:09:22;;;;;;;;;;;;;;;;;;5008226;28;20434;-73
2023/06/02 07:11:48;;;;;;;;;;;;;;;;;;5012459;28;19920;-71
2023/06/02 07:14:14;;;;;;;;;;;;;;;;;;5006258;28;20048;-70
2023/06/02 07:16:40;;;;;;;;;;;;;;;;;;5008626;28;19917;-70
2023/06/02 07:19:06;;;;;;;;;;;;;;;;;;5006851;28;20224;-72
2023/06/02 07:21:32;;;;;;;;;;;;;;;;;;5006228;28;19909;-72
2023/06/02 07:23:58;;;;;;;;;;;;;;;;;;5011366;28;20377;-72
2023/06/02 07:26:25;;;;;;;;;;;;;;;;;;5004986;28;19912;-72
2023/06/02 07:28:51;;;;;;;;;;;;;;;;;;5008739;28;19964;-72
2023/06/02 07:31:18;;;;;;;;;;;;;;;;;;5006927;28;20062;-73
2023/06/02 07:33:45;;;;;;;;;;;;;;;;;;5008592;28;20377;-72
2023/06/02 07:36:11;;;;;;;;;;;;;;;;;;5012476;28;19975;-72
2023/06/02 07:38:37;;;;;;;;;;;;;;;;;;5012292;28;20428;-71
2023/06/02 07:41:03;;;;;;;;;;;;;;;;;;5011456;28;20144;-72
2023/06/02 07:43:29;;;;;;;;;;;;;;;;;;5009559;28;19916;-72
2023/06/02 07:45:55;;;;;;;;;;;;;;;;;;5011449;28;20255;-72
2023/06/02 07:48:21;;;;;;;;;;;;;;;;;;5006556;28;20228;-71
2023/06/02 07:50:47;;;;;;;;;;;;;;;;;;5009284;28;20006;-72
2023/06/02 07:53:13;;;;;;;;;;;;;;;;;;5009187;28;20452;-71
2023/06/02 07:55:39;;;;;;;;;;;;;;;;;;5006907;28;20145;-71
2023/06/02 07:58:05;;;;;;;;;;;;;;;;;;5009961;28;20361;-72
2023/06/02 08:00:31;;;;;;;;;;;;;;;;;;5007336;28;19952;-72
2023/06/02 08:02:57;;;;;;;;;;;;;;;;;;5010645;28;19916;-72
2023/06/02 08:05:23;;;;;;;;;;;;;;;;;;5006009;28;20444;-72
2023/06/02 08:07:49;;;;;;;;;;;;;;;;;;5008084;28;20244;-72
2023/06/02 08:10:15;;;;;;;;;;;;;;;;;;5007390;28;20011;-73
2023/06/02 08:12:41;;;;;;;;;;;;;;;;;;5010144;28;19986;-71
2023/06/02 08:15:07;;;;;;;;;;;;;;;;;;5009092;28;19960;-73
2023/06/02 08:17:33;;;;;;;;;;;;;;;;;;5008857;28;19916;-71
2023/06/02 08:19:59;;;;;;;;;;;;;;;;;;5008053;28;20404;-71
2023/06/02 08:22:28;;;;;;;;;;;;;;;;;;5007170;28;19967;-71
2023/06/02 08:24:54;;;;;;;;;;;;;;;;;;5008919;28;20178;-72
2023/06/02 08:27:21;;;;;;;;;;;;;;;;;;5012560;28;19913;-72
2023/06/02 08:29:47;;;;;;;;;;;;;;;;;;5008917;28;19939;-72
2023/06/02 08:32:13;;;;;;;;;;;;;;;;;;5008437;28;20357;-72
2023/06/02 08:34:41;;;;;;;;;;;;;;;;;;5008807;28;20073;-72
2023/06/02 08:37:09;;;;;;;;;;;;;;;;;;5009965;28;19912;-72
2023/06/02 08:39:35;;;;;;;;;;;;;;;;;;5010288;28;19913;-72
2023/06/02 08:42:01;;;;;;;;;;;;;;;;;;5008521;28;19974;-72
2023/06/02 08:44:27;;;;;;;;;;;;;;;;;;5004607;28;19912;-72
2023/06/02 08:46:55;;;;;;;;;;;;;;;;;;5014460;28;19948;-72
2023/06/02 08:49:20;;;;;;;;;;;;;;;;;;5003986;28;20062;-72
2023/06/02 08:51:47;;;;;;;;;;;;;;;;;;5007205;28;20534;-72
2023/06/02 08:54:13;;;;;;;;;;;;;;;;;;5005169;28;19925;-72
2023/06/02 08:56:41;;;;;;;;;;;;;;;;;;5007958;28;19912;-73
2023/06/02 08:59:07;;;;;;;;;;;;;;;;;;5013033;28;19935;-72
2023/06/02 09:01:33;;;;;;;;;;;;;;;;;;5008886;28;20524;-72
2023/06/02 09:03:59;;;;;;;;;;;;;;;;;;5008863;28;19955;-72
2023/06/02 09:06:26;;;;;;;;;;;;;;;;;;5007199;28;19920;-72
2023/06/02 09:08:52;;;;;;;;;;;;;;;;;;5009465;28;19913;-73
2023/06/02 09:11:19;;;;;;;;;;;;;;;;;;5008312;28;20702;-71
2023/06/02 09:13:45;;;;;;;;;;;;;;;;;;5008370;28;20498;-74
2023/06/02 09:16:11;;;;;;;;;;;;;;;;;;5006077;28;20529;-73
2023/06/02 09:18:37;;;;;;;;;;;;;;;;;;5007176;28;20389;-72
2023/06/02 09:21:03;;;;;;;;;;;;;;;;;;5010297;28;20062;-72
2023/06/02 09:23:29;;;;;;;;;;;;;;;;;;5006581;28;20686;-72
2023/06/02 09:25:55;;;;;;;;;;;;;;;;;;5010643;28;19968;-72
2023/06/02 09:28:21;;;;;;;;;;;;;;;;;;5004813;28;20145;-72
2023/06/02 09:30:47;;;;;;;;;;;;;;;;;;5008579;28;20263;-71
2023/06/02 09:33:12;;;;;;;;;;;;;;;;;;5006803;28;19924;-72
2023/06/02 09:35:40;;;;;;;;;;;;;;;;;;5010463;28;19925;-71
2023/06/02 09:38:07;;;;;;;;;;;;;;;;;;5011548;28;20054;-71
2023/06/02 09:40:34;;;;;;;;;;;;;;;;;;5001592;28;20225;-72
2023/06/02 09:43:00;;;;;;;;;;;;;;;;;;5009418;28;19912;-71
2023/06/02 09:45:26;;;;;;;;;;;;;;;;;;5013990;28;19916;-72
2023/06/02 09:47:52;;;;;;;;;;;;;;;;;;5007372;28;20285;-73
2023/06/02 09:50:18;;;;;;;;;;;;;;;;;;5008712;28;20423;-72
2023/06/02 09:52:44;;;;;;;;;;;;;;;;;;5012140;28;19963;-71
2023/06/02 09:55:10;;;;;;;;;;;;;;;;;;5009746;28;19917;-71
2023/06/02 09:57:36;;;;;;;;;;;;;;;;;;5011093;28;19956;-71
2023/06/02 10:00:03;;;;;;;;;;;;;;;;;;5011319;28;19920;-71
2023/06/02 10:02:29;;;;;;;;;;;;;;;;;;5008593;28;20856;-72
2023/06/02 10:04:55;;;;;;;;;;;;;;;;;;5010233;28;19991;-71
2023/06/02 10:07:21;;;;;;;;;;;;;;;;;;5011276;28;19924;-71
2023/06/02 10:09:47;;;;;;;;;;;;;;;;;;5011639;28;19917;-72
2023/06/02 10:12:13;;;;;;;;;;;;;;;;;;5008647;28;20278;-71
2023/06/02 10:14:39;;;;;;;;;;;;;;;;;;5011596;28;19943;-71
2023/06/02 10:17:05;;;;;;;;;;;;;;;;;;5008605;28;19913;-71
2023/06/02 10:19:31;;;;;;;;;;;;;;;;;;5010316;28;19921;-73
2023/06/02 10:21:57;;;;;;;;;;;;;;;;;;5014393;28;19909;-70
2023/06/02 10:24:23;;;;;;;;;;;;;;;;;;5007811;28;20749;-73
2023/06/02 10:26:49;;;;;;;;;;;;;;;;;;5009627;28;19917;-71
2023/06/02 10:29:15;;;;;;;;;;;;;;;;;;5011461;28;20296;-72
2023/06/02 10:31:41;;;;;;;;;;;;;;;;;;5009641;28;19913;-72
2023/06/02 10:34:07;;;;;;;;;;;;;;;;;;5012562;28;20023;-72
2023/06/02 10:36:33;;;;;;;;;;;;;;;;;;5008724;28;20162;-72
2023/06/02 10:38:59;;;;;;;;;;;;;;;;;;5011964;28;20239;-72
2023/06/02 10:41:25;;;;;;;;;;;;;;;;;;5009942;28;20216;-71
2023/06/02 10:43:51;;;;;;;;;;;;;;;;;;5008351;28;20063;-71
2023/06/02 10:46:17;;;;;;;;;;;;;;;;;;5014006;28;19916;-71
2023/06/02 10:48:43;;;;;;;;;;;;;;;;;;5011871;28;19917;-71
2023/06/02 10:51:10;;;;;;;;;;;;;;;;;;5010393;28;19913;-71
2023/06/02 10:53:35;;;;;;;;;;;;;;;;;;5010011;28;19917;-71
2023/06/02 10:56:01;;;;;;;;;;;;;;;;;;5007991;28;20000;-70
2023/06/02 10:58:27;;;;;;;;;;;;;;;;;;5007472;28;19974;-70
2023/06/02 11:00:54;;;;;;;;;;;;;;;;;;5012201;28;20377;-70
2023/06/02 11:03:22;;;;;;;;;;;;;;;;;;5010319;28;20012;-71
2023/06/02 11:05:49;;;;;;;;;;;;;;;;;;5013762;28;20445;-70
2023/06/02 11:08:17;;;;;;;;;;;;;;;;;;5007329;28;19921;-70
2023/06/02 11:10:43;;;;;;;;;;;;;;;;;;5010757;28;19947;-70
2023/06/02 11:13:09;;;;;;;;;;;;;;;;;;5002639;28;20696;-70
2023/06/02 11:15:35;;;;;;;;;;;;;;;;;;5004189;28;19913;-70
2023/06/02 11:18:03;;;;;;;;;;;;;;;;;;5005241;28;20259;-70
2023/06/02 11:20:29;;;;;;;;;;;;;;;;;;5005026;28;19920;-70
2023/06/02 11:22:55;;;;;;;;;;;;;;;;;;5006076;28;20439;-70
2023/06/02 11:25:21;;;;;;;;;;;;;;;;;;5003308;28;20409;-70
2023/06/02 11:27:47;;;;;;;;;;;;;;;;;;5005720;28;19939;-68
2023/06/02 11:30:13;;;;;;;;;;;;;;;;;;5007538;28;20788;-71
2023/06/02 11:32:40;;;;;;;;;;;;;;;;;;5008354;28;20245;-70
2023/06/02 11:35:07;;;;;;;;;;;;;;;;;;5005196;28;20024;-71
2023/06/02 11:37:33;;;;;;;;;;;;;;;;;;5004714;28;20280;-67
2023/06/02 11:39:59;;;;;;;;;;;;;;;;;;5006563;28;20202;-67
2023/06/02 11:42:25;;;;;;;;;;;;;;;;;;5006457;28;19920;-67
2023/06/02 11:44:51;;;;;;;;;;;;;;;;;;5005504;28;19937;-68
2023/06/02 11:47:17;;;;;;;;;;;;;;;;;;5005508;28;20601;-68
2023/06/02 11:49:43;;;;;;;;;;;;;;;;;;5008188;28;19924;-70
2023/06/02 11:52:09;;;;;;;;;;;;;;;;;;5004555;28;20474;-69
2023/06/02 11:54:35;;;;;;;;;;;;;;;;;;5006634;28;19920;-69
2023/06/02 11:57:01;;;;;;;;;;;;;;;;;;5009956;28;20202;-69
2023/06/02 11:59:27;;;;;;;;;;;;;;;;;;5000659;28;19999;-69
2023/06/02 12:01:53;;;;;;;;;;;;;;;;;;5004048;28;20165;-70
2023/06/02 12:04:19;;;;;;;;;;;;;;;;;;5001565;28;20082;-70
2023/06/02 12:06:45;;;;;;;;;;;;;;;;;;4999193;28;19916;-69
2023/06/02 12:09:11;;;;;;;;;;;;;;;;;;5005163;28;20332;-69
2023/06/02 12:11:37;;;;;;;;;;;;;;;;;;5006533;28;19913;-70
2023/06/02 12:14:04;;;;;;;;;;;;;;;;;;5005121;28;20463;-69
2023/06/02 12:16:30;;;;;;;;;;;;;;;;;;5003086;28;19920;-69
2023/06/02 12:18:56;;;;;;;;;;;;;;;;;;5003588;28;20945;-69
2023/06/02 12:21:22;;;;;;;;;;;;;;;;;;5002516;28;19935;-69
2023/06/02 12:23:48;;;;;;;;;;;;;;;;;;5012437;28;20448;-69
2023/06/02 12:26:14;;;;;;;;;;;;;;;;;;5002449;28;19924;-68
2023/06/02 12:28:40;;;;;;;;;;;;;;;;;;5002851;28;20532;-69
2023/06/02 12:31:06;;;;;;;;;;;;;;;;;;5004341;28;19952;-69
2023/06/02 12:33:32;;;;;;;;;;;;;;;;;;5005064;28;19928;-68
2023/06/02 12:35:58;;;;;;;;;;;;;;;;;;5010999;28;20273;-68
2023/06/02 12:38:24;;;;;;;;;;;;;;;;;;5001465;28;20026;-68
2023/06/02 12:40:50;;;;;;;;;;;;;;;;;;5006665;28;20275;-68
2023/06/02 12:43:18;;;;;;;;;;;;;;;;;;5006453;28;19923;-69
2023/06/02 12:45:44;;;;;;;;;;;;;;;;;;5006170;28;19920;-69
2023/06/02 12:48:11;;;;;;;;;;;;;;;;;;5010569;28;19943;-69
2023/06/02 12:50:37;;;;;;;;;;;;;;;;;;5006392;28;20388;-68
2023/06/02 12:53:03;;;;;;;;;;;;;;;;;;5008631;28;19921;-68
2023/06/02 12:55:30;;;;;;;;;;;;;;;;;;5002536;28;20003;-68
2023/06/02 12:57:56;;;;;;;;;;;;;;;;;;5008254;28;19916;-69
2023/06/02 13:00:22;;;;;;;;;;;;;;;;;;5004289;28;19913;-69
2023/06/02 13:02:48;;;;;;;;;;;;;;;;;;5007101;28;19916;-69
2023/06/02 13:05:14;;;;;;;;;;;;;;;;;;5007626;28;19939;-69
2023/06/02 13:07:40;;;;;;;;;;;;;;;;;;5008496;28;20279;-69
2023/06/02 13:10:07;;;;;;;;;;;;;;;;;;5008908;28;20288;-68
2023/06/02 13:12:33;;;;;;;;;;;;;;;;;;5005900;28;19916;-69
2023/06/02 13:15:00;;;;;;;;;;;;;;;;;;5008163;28;19923;-70
2023/06/02 13:17:27;;;;;;;;;;;;;;;;;;5002354;28;20752;-70
2023/06/02 13:19:53;;;;;;;;;;;;;;;;;;5004585;28;20381;-69
2023/06/02 13:22:19;;;;;;;;;;;;;;;;;;5003468;28;20698;-70
2023/06/02 13:24:45;;;;;;;;;;;;;;;;;;5005919;28;19921;-70
2023/06/02 13:27:11;;;;;;;;;;;;;;;;;;5003252;28;20437;-69
2023/06/02 13:29:37;;;;;;;;;;;;;;;;;;5007304;28;19913;-70
2023/06/02 13:32:03;;;;;;;;;;;;;;;;;;5006289;28;20437;-67
2023/06/02 13:34:29;;;;;;;;;;;;;;;;;;5003605;28;20136;-70
2023/06/02 13:36:55;;;;;;;;;;;;;;;;;;5004638;28;20541;-69
2023/06/02 13:39:21;;;;;;;;;;;;;;;;;;5001975;28;20602;-68
2023/06/02 13:41:47;;;;;;;;;;;;;;;;;;5001381;28;19913;-68
2023/06/02 13:44:13;;;;;;;;;;;;;;;;;;5005629;28;20567;-68
2023/06/02 13:46:39;;;;;;;;;;;;;;;;;;5008566;28;19914;-68
2023/06/02 13:49:05;;;;;;;;;;;;;;;;;;5010370;28;20144;-69
2023/06/02 13:51:31;;;;;;;;;;;;;;;;;;5005557;28;19967;-67
2023/06/02 13:53:57;;;;;;;;;;;;;;;;;;5011256;28;20496;-67
2023/06/02 13:56:23;;;;;;;;;;;;;;;;;;5008618;28;19920;-68
2023/06/02 13:58:49;;;;;;;;;;;;;;;;;;5011652;28;20371;-67
2023/06/02 14:01:15;;;;;;;;;;;;;;;;;;5006475;28;19924;-67
2023/06/02 14:03:41;;;;;;;;;;;;;;;;;;5008936;28;19964;-67
2023/06/02 14:06:07;;;;;;;;;;;;;;;;;;5010419;28;20519;-67
2023/06/02 14:08:33;;;;;;;;;;;;;;;;;;5006988;28;19917;-68
2023/06/02 14:10:59;;;;;;;;;;;;;;;;;;5009145;28;20579;-67
2023/06/02 14:13:26;;;;;;;;;;;;;;;;;;5009376;28;19940;-67
2023/06/02 14:15:52;;;;;;;;;;;;;;;;;;5008872;28;20593;-68
2023/06/02 14:18:18;;;;;;;;;;;;;;;;;;5009991;28;19999;-66
2023/06/02 14:20:44;;;;;;;;;;;;;;;;;;5009949;28;20386;-67
2023/06/02 14:23:10;;;;;;;;;;;;;;;;;;5004361;28;20226;-67
2023/06/02 14:25:36;;;;;;;;;;;;;;;;;;5008934;28;20363;-68
2023/06/02 14:28:02;;;;;;;;;;;;;;;;;;5008344;28;20439;-68
2023/06/02 14:30:28;;;;;;;;;;;;;;;;;;5005110;28;20159;-68
2023/06/02 14:32:54;;;;;;;;;;;;;;;;;;5013031;28;19963;-68
2023/06/02 14:35:20;;;;;;;;;;;;;;;;;;5008425;28;20334;-67
2023/06/02 14:37:46;;;;;;;;;;;;;;;;;;5013877;28;20328;-69
2023/06/02 14:40:12;;;;;;;;;;;;;;;;;;5011366;28;19956;-71
2023/06/02 14:42:38;;;;;;;;;;;;;;;;;;5015249;28;20347;-71
2023/06/02 14:45:04;;;;;;;;;;;;;;;;;;5013329;28;20077;-69
2023/06/02 14:47:33;;;;;;;;;;;;;;;;;;5010640;28;19917;-69
2023/06/02 14:49:59;;;;;;;;;;;;;;;;;;5015113;28;20287;-70
2023/06/02 14:52:25;;;;;;;;;;;;;;;;;;5010991;28;19920;-67
2023/06/02 14:54:51;;;;;;;;;;;;;;;;;;5016652;28;19917;-67
2023/06/02 14:57:17;;;;;;;;;;;;;;;;;;5008352;28;19924;-74
2023/06/02 14:59:43;;;;;;;;;;;;;;;;;;5012191;28;20142;-70
2023/06/02 15:02:09;;;;;;;;;;;;;;;;;;5008560;28;20357;-70
2023/06/02 15:04:35;;;;;;;;;;;;;;;;;;5012485;28;20656;-69
2023/06/02 15:07:01;;;;;;;;;;;;;;;;;;5012161;28;20782;-72
2023/06/02 15:09:27;;;;;;;;;;;;;;;;;;5009054;28;20292;-69
2023/06/02 15:11:53;;;;;;;;;;;;;;;;;;5011569;28;20012;-69
2023/06/02 15:14:19;;;;;;;;;;;;;;;;;;5008894;28;19985;-70
2023/06/02 15:16:45;;;;;;;;;;;;;;;;;;5013648;28;20608;-69
2023/06/02 15:19:11;;;;;;;;;;;;;;;;;;5009938;28;19921;-69
2023/06/02 15:21:37;;;;;;;;;;;;;;;;;;5012512;28;20353;-69
2023/06/02 15:24:03;;;;;;;;;;;;;;;;;;5012208;28;19920;-68
2023/06/02 15:26:29;;;;;;;;;;;;;;;;;;5007691;28;19980;-70
2023/06/02 15:28:55;;;;;;;;;;;;;;;;;;5008860;28;19909;-69
2023/06/02 15:31:21;;;;;;;;;;;;;;;;;;5008425;28;19913;-69
2023/06/02 15:33:47;;;;;;;;;;;;;;;;;;5006411;28;20731;-70
2023/06/02 15:36:13;;;;;;;;;;;;;;;;;;5009135;28;20358;-70
2023/06/02 15:38:39;;;;;;;;;;;;;;;;;;5012231;28;20151;-71
2023/06/02 15:41:05;;;;;;;;;;;;;;;;;;5013456;28;20231;-70
2023/06/02 15:43:31;;;;;;;;;;;;;;;;;;5006630;28;20364;-71
2023/06/02 15:45:57;;;;;;;;;;;;;;;;;;5010671;28;19919;-71
2023/06/02 15:48:23;;;;;;;;;;;;;;;;;;5006522;28;20020;-71
2023/06/02 15:50:49;;;;;;;;;;;;;;;;;;5009834;28;19912;-72
2023/06/02 15:53:15;;;;;;;;;;;;;;;;;;5012278;28;19913;-71
2023/06/02 15:55:41;;;;;;;;;;;;;;;;;;5009152;28;19920;-71
2023/06/02 15:58:07;;;;;;;;;;;;;;;;;;5010725;28;19917;-71
2023/06/02 16:00:33;;;;;;;;;;;;;;;;;;5008330;28;19931;-72
2023/06/02 16:02:59;;;;;;;;;;;;;;;;;;5007796;28;20046;-71
2023/06/02 16:05:25;;;;;;;;;;;;;;;;;;5009796;28;19935;-71
2023/06/02 16:07:51;;;;;;;;;;;;;;;;;;5010523;28;19913;-72
2023/06/02 16:10:17;;;;;;;;;;;;;;;;;;5007476;28;19965;-71
2023/06/02 16:12:43;;;;;;;;;;;;;;;;;;5007707;28;20323;-71
2023/06/02 16:15:09;;;;;;;;;;;;;;;;;;5006640;28;19917;-72
2023/06/02 16:17:35;;;;;;;;;;;;;;;;;;4957803;28;1537499;-71
2023/06/02 16:20:01;;;;;;;;;;;;;;;;;;5011598;28;19913;-71
2023/06/02 16:22:27;;;;;;;;;;;;;;;;;;5008037;28;19921;-71
2023/06/02 16:24:53;;;;;;;;;;;;;;;;;;5008536;28;19913;-71
2023/06/02 16:27:19;;;;;;;;;;;;;;;;;;5008522;28;20375;-71
2023/06/02 16:29:45;;;;;;;;;;;;;;;;;;5010540;28;20432;-71
2023/06/02 16:32:11;;;;;;;;;;;;;;;;;;5007127;28;20581;-71
2023/06/02 16:34:37;;;;;;;;;;;;;;;;;;5009800;28;19928;-71
2023/06/02 16:37:03;;;;;;;;;;;;;;;;;;5008426;28;19944;-71